Overview Statistics Trail Chart Weather Telemetry Raw packets
 

This is the latest recevied weather packets stored in our database for station/object AF0GV-15. If no packets are shown the sender has not sent any weather packets the latest 10 day(s).

<< 1 2 3 4 >>
Time Temp. Humidity Pressure Rain* Wind** Luminosity Snow
1788572816 28.89° C 79% 1011.8 hPa 0 mm - - -
1788571866 29.44° C 76% 1011.6 hPa 0 mm - - -
1788570917 30° C 73% 1011.5 hPa 0 mm - - -
1788569022 32.22° C 65% 1011.4 hPa 0 mm - - -
1788568070 33.33° C 63% 1011.4 hPa 0 mm - - -
1788567124 33.89° C 57% 1011.5 hPa 0 mm - - -
1788565224 35.56° C 53% 1011.5 hPa 0 mm - - -
1788563325 36.11° C 49% 1011.7 hPa 0 mm - - -
1788562376 36.11° C 49% 1011.6 hPa 0 mm - - -
1788561427 35.56° C 48% 1011.6 hPa 0 mm - - -
1788560478 36.11° C 49% 1011.6 hPa 0 mm - - -
1788559529 35.56° C 48% 1011.7 hPa 0 mm - - -
1788558580 35.56° C 48% 1011.7 hPa 0 mm - - -
1788557631 36.11° C 48% 1011.9 hPa 0 mm - - -
1788556682 36.11° C 47% 1011.9 hPa 0 mm - - -
1788555733 36.11° C 45% 1012.2 hPa 0 mm - - -
1788554784 35.56° C 46% 1012.3 hPa 0 mm - - -
1788553836 35.56° C 49% 1012.3 hPa 0 mm - - -
1788552886 35.56° C 49% 1012.4 hPa 0 mm - - -
1788551937 35.56° C 49% 1012.6 hPa 0 mm - - -
1788550989 35.56° C 49% 1012.8 hPa 0 mm - - -
1788550039 35° C 50% 1012.8 hPa 0 mm - - -
1788549090 35.56° C 50% 1012.8 hPa 0 mm - - -
1788548141 35° C 51% 1013 hPa 0 mm - - -
1788547192 34.44° C 50% 1013.2 hPa 0 mm - - -

* Rain latest hour (hover to see other rain measurements)
** Current wind speed in m/s (hover to see current wind gust speed)